createdAt,value
2017-05-01T00:00:29.690Z,0
2017-05-01T00:01:31.116Z,0
2017-05-01T00:02:32.537Z,0
2017-05-01T00:03:33.966Z,0
2017-05-01T00:04:35.393Z,0
2017-05-01T00:05:36.827Z,0
2017-05-01T00:06:38.249Z,0
2017-05-01T00:07:39.672Z,0
2017-05-01T00:08:41.092Z,0
2017-05-01T00:09:42.523Z,0
2017-05-01T00:10:43.972Z,0
2017-05-01T00:11:45.401Z,0
2017-05-01T00:12:46.835Z,0
2017-05-01T00:13:48.866Z,0
2017-05-01T00:14:50.289Z,0
2017-05-01T00:15:51.722Z,0
2017-05-01T00:16:53.147Z,0
2017-05-01T00:17:54.573Z,0
2017-05-01T00:18:56.530Z,0
2017-05-01T00:19:57.370Z,0
2017-05-01T00:20:58.792Z,0
2017-05-01T00:22:00.224Z,0
2017-05-01T00:23:01.648Z,0
2017-05-01T00:24:03.068Z,0
2017-05-01T00:25:04.496Z,0
2017-05-01T00:26:05.927Z,0
2017-05-01T00:27:07.356Z,0
2017-05-01T00:28:08.782Z,0
2017-05-01T00:29:10.211Z,0
2017-05-01T00:30:11.641Z,0
2017-05-01T00:31:13.066Z,0
2017-05-01T00:32:14.490Z,0
2017-05-01T00:33:15.911Z,0
2017-05-01T00:34:17.340Z,0
2017-05-01T00:35:18.765Z,0
2017-05-01T00:36:20.197Z,0
2017-05-01T00:37:21.622Z,0
2017-05-01T00:38:23.057Z,0
2017-05-01T00:39:24.523Z,0
2017-05-01T00:40:25.912Z,0
2017-05-01T00:41:27.340Z,0
2017-05-01T00:42:28.768Z,0
2017-05-01T00:43:30.192Z,0
2017-05-01T00:44:31.620Z,0
2017-05-01T00:45:33.047Z,0
2017-05-01T00:46:34.473Z,0
2017-05-01T00:47:35.899Z,0
2017-05-01T00:48:37.333Z,0
2017-05-01T00:49:38.760Z,0
2017-05-01T00:50:40.190Z,0
2017-05-01T00:51:41.607Z,0
2017-05-01T00:52:43.039Z,0
2017-05-01T00:53:45.225Z,0
2017-05-01T00:54:46.663Z,0
2017-05-01T00:55:48.093Z,0
2017-05-01T00:56:49.519Z,0
2017-05-01T00:57:50.942Z,0
2017-05-01T00:58:52.364Z,0
2017-05-01T00:59:53.798Z,0
2017-05-01T01:00:55.218Z,0
2017-05-01T01:01:56.637Z,0
2017-05-01T01:02:58.071Z,0
2017-05-01T01:03:59.494Z,0
2017-05-01T01:05:00.924Z,0
2017-05-01T01:06:02.353Z,0
2017-05-01T01:07:03.778Z,0
2017-05-01T01:08:05.203Z,0
2017-05-01T01:09:06.637Z,0
2017-05-01T01:10:08.059Z,0
2017-05-01T01:11:09.487Z,0
2017-05-01T01:12:10.913Z,0
2017-05-01T01:13:12.341Z,0
2017-05-01T01:14:14.645Z,0
2017-05-01T01:15:16.075Z,0
2017-05-01T01:16:17.505Z,0
2017-05-01T01:17:19.865Z,0
2017-05-01T01:18:21.290Z,0
2017-05-01T01:19:22.719Z,0
2017-05-01T01:20:24.139Z,0
2017-05-01T01:21:25.555Z,0
2017-05-01T01:22:26.988Z,0
2017-05-01T01:23:28.422Z,0
2017-05-01T01:24:29.844Z,0
2017-05-01T01:25:31.270Z,0
2017-05-01T01:26:32.703Z,0
2017-05-01T01:27:34.836Z,0
2017-05-01T01:28:36.260Z,0
2017-05-01T01:29:37.686Z,0
2017-05-01T01:30:39.109Z,0
2017-05-01T01:31:40.535Z,0
2017-05-01T01:32:41.960Z,0
2017-05-01T01:33:43.383Z,0
2017-05-01T01:34:44.825Z,0
2017-05-01T01:35:46.244Z,0
2017-05-01T01:36:47.670Z,0
2017-05-01T01:37:49.104Z,0
2017-05-01T01:38:50.528Z,0
2017-05-01T01:39:51.960Z,0
2017-05-01T01:40:53.381Z,0
2017-05-01T01:41:54.815Z,0
2017-05-01T01:42:56.240Z,0
2017-05-01T01:43:57.665Z,0
2017-05-01T01:44:59.086Z,0
2017-05-01T01:46:00.511Z,0
2017-05-01T01:47:01.936Z,0
2017-05-01T01:48:03.365Z,0
2017-05-01T01:49:04.786Z,0
2017-05-01T01:50:06.208Z,0
2017-05-01T01:51:07.636Z,0
2017-05-01T01:52:09.061Z,0
2017-05-01T01:53:10.486Z,0
2017-05-01T01:54:11.908Z,0
2017-05-01T01:55:13.330Z,0
2017-05-01T01:56:15.269Z,0
2017-05-01T01:57:17.435Z,0
2017-05-01T01:58:18.872Z,0
2017-05-01T01:59:20.298Z,0
2017-05-01T02:00:21.729Z,0
2017-05-01T02:01:23.158Z,0
2017-05-01T02:02:24.583Z,0
2017-05-01T02:03:26.034Z,0
2017-05-01T02:04:27.437Z,0
2017-05-01T02:05:28.865Z,0
2017-05-01T02:06:30.290Z,0
2017-05-01T02:07:31.711Z,0
2017-05-01T02:08:33.145Z,0
2017-05-01T02:09:34.569Z,0
2017-05-01T02:10:35.992Z,0
2017-05-01T02:11:37.419Z,0
2017-05-01T02:12:38.882Z,0
2017-05-01T02:13:40.276Z,0
2017-05-01T02:14:41.705Z,0
2017-05-01T02:15:43.131Z,0
2017-05-01T02:16:44.553Z,0
2017-05-01T02:17:45.978Z,0
2017-05-01T02:18:47.410Z,0
2017-05-01T02:19:48.847Z,0
2017-05-01T02:20:50.271Z,0
2017-05-01T02:21:51.697Z,0
2017-05-01T02:22:53.134Z,0
2017-05-01T02:23:54.571Z,0
2017-05-01T02:24:56.002Z,0
2017-05-01T02:25:57.416Z,0
2017-05-01T02:26:58.870Z,0
2017-05-01T02:28:00.271Z,0
2017-05-01T02:29:01.725Z,0
2017-05-01T02:30:03.150Z,0
2017-05-01T02:31:04.573Z,0
2017-05-01T02:32:06.001Z,0
2017-05-01T02:33:07.430Z,0
2017-05-01T02:34:09.623Z,0
2017-05-01T02:35:11.047Z,0
2017-05-01T02:36:12.476Z,0
2017-05-01T02:37:13.896Z,0
2017-05-01T02:38:15.328Z,0
2017-05-01T02:39:17.342Z,0
2017-05-01T02:40:18.765Z,0
2017-05-01T02:41:20.198Z,0
2017-05-01T02:42:21.624Z,0
2017-05-01T02:43:23.051Z,0
2017-05-01T02:44:24.474Z,0
2017-05-01T02:45:25.911Z,0
2017-05-01T02:46:27.341Z,0
2017-05-01T02:47:28.770Z,0
2017-05-01T02:48:30.190Z,0
2017-05-01T02:49:31.616Z,0
2017-05-01T02:50:33.043Z,0
2017-05-01T02:51:34.497Z,0
2017-05-01T02:52:35.892Z,0
2017-05-01T02:53:37.320Z,0
2017-05-01T02:54:38.744Z,0
2017-05-01T02:55:40.176Z,0
2017-05-01T02:56:41.637Z,0
2017-05-01T02:57:43.111Z,0
2017-05-01T02:58:44.544Z,0
2017-05-01T02:59:45.973Z,0
2017-05-01T03:00:47.398Z,0
2017-05-01T03:01:48.854Z,0
2017-05-01T03:02:50.282Z,0
2017-05-01T03:03:51.708Z,0
2017-05-01T03:04:53.237Z,0
2017-05-01T03:05:54.664Z,0
2017-05-01T03:06:56.097Z,0
2017-05-01T03:07:57.573Z,0
2017-05-01T03:08:58.995Z,0
2017-05-01T03:10:00.424Z,0
2017-05-01T03:11:01.847Z,0
2017-05-01T03:12:03.273Z,0
2017-05-01T03:13:04.698Z,0
2017-05-01T03:14:06.122Z,0
2017-05-01T03:15:07.563Z,0
2017-05-01T03:16:08.991Z,0
2017-05-01T03:17:10.420Z,0
2017-05-01T03:18:11.844Z,0
2017-05-01T03:19:13.369Z,0
2017-05-01T03:20:14.799Z,0
2017-05-01T03:21:16.237Z,0
2017-05-01T03:22:17.657Z,0
2017-05-01T03:23:19.177Z,0
2017-05-01T03:24:20.596Z,0
2017-05-01T03:25:22.029Z,0
2017-05-01T03:26:23.449Z,0
2017-05-01T03:27:24.886Z,0
2017-05-01T03:28:26.316Z,0
2017-05-01T03:29:27.740Z,0
2017-05-01T03:30:29.265Z,0
2017-05-01T03:31:30.678Z,0
2017-05-01T03:32:32.116Z,0
2017-05-01T03:33:33.628Z,0
2017-05-01T03:34:35.058Z,0
2017-05-01T03:35:36.481Z,0
2017-05-01T03:36:37.912Z,0
2017-05-01T03:37:39.349Z,0
2017-05-01T03:38:40.774Z,0
2017-05-01T03:39:42.212Z,0
2017-05-01T03:40:43.631Z,0
2017-05-01T03:41:45.057Z,0
2017-05-01T03:42:46.481Z,0
2017-05-01T03:43:47.913Z,0
2017-05-01T03:44:49.338Z,0
2017-05-01T03:45:50.758Z,0
2017-05-01T03:46:52.187Z,0
2017-05-01T03:47:53.614Z,0
2017-05-01T03:50:20.654Z,0
2017-05-01T03:51:22.079Z,0
2017-05-01T03:52:23.512Z,0
2017-05-01T03:53:24.934Z,0
2017-05-01T03:54:26.360Z,0
2017-05-01T03:55:27.790Z,0
2017-05-01T03:56:29.214Z,0
2017-05-01T03:57:30.635Z,0
2017-05-01T03:58:32.065Z,0
2017-05-01T03:59:33.499Z,0
2017-05-01T04:00:35.663Z,0
2017-05-01T04:01:37.092Z,0
2017-05-01T04:02:38.517Z,0
2017-05-01T04:03:40.002Z,0
2017-05-01T04:04:41.427Z,0
2017-05-01T04:05:42.853Z,0
2017-05-01T04:06:44.279Z,0
2017-05-01T04:07:45.709Z,0
2017-05-01T04:08:47.134Z,0
2017-05-01T04:09:48.558Z,0
2017-05-01T04:10:49.996Z,0
2017-05-01T04:11:51.420Z,0
2017-05-01T04:12:52.901Z,0
2017-05-01T04:13:54.330Z,0
2017-05-01T04:14:55.755Z,0
2017-05-01T04:15:58.124Z,0
2017-05-01T04:16:59.553Z,0
2017-05-01T04:18:00.982Z,0
2017-05-01T04:19:02.407Z,0
2017-05-01T04:20:03.838Z,0
2017-05-01T04:21:05.270Z,0
2017-05-01T04:22:06.743Z,0
2017-05-01T04:23:08.167Z,0
2017-05-01T04:24:10.165Z,5
2017-05-01T04:25:11.589Z,5
2017-05-01T04:26:13.018Z,5
2017-05-01T04:27:14.441Z,5
2017-05-01T04:28:15.869Z,5
2017-05-01T04:29:17.305Z,5
2017-05-01T04:30:18.731Z,5
2017-05-01T04:31:20.158Z,5
2017-05-01T04:32:21.590Z,5
2017-05-01T04:33:23.025Z,5
2017-05-01T04:34:24.450Z,5
2017-05-01T04:35:25.883Z,5
2017-05-01T04:36:27.307Z,5
2017-05-01T04:37:29.566Z,5
2017-05-01T04:38:30.992Z,5
2017-05-01T04:39:32.416Z,5
2017-05-01T04:40:33.851Z,5
2017-05-01T04:41:35.297Z,5
2017-05-01T04:42:36.729Z,5
2017-05-01T04:43:38.155Z,5
2017-05-01T04:44:39.577Z,5
2017-05-01T04:45:41.957Z,10
2017-05-01T04:46:43.387Z,10
2017-05-01T04:47:44.819Z,10
2017-05-01T04:48:46.253Z,10
2017-05-01T04:49:47.684Z,10
2017-05-01T04:50:49.113Z,10
2017-05-01T04:51:50.543Z,10
2017-05-01T04:52:51.970Z,10
2017-05-01T04:53:53.405Z,10
2017-05-01T04:54:55.735Z,10
2017-05-01T04:55:57.169Z,10
2017-05-01T04:56:58.600Z,10
2017-05-01T04:58:00.023Z,10
2017-05-01T04:59:01.453Z,15
2017-05-01T05:00:02.881Z,15
2017-05-01T05:01:04.304Z,15
2017-05-01T05:02:05.736Z,15
2017-05-01T05:03:07.162Z,15
2017-05-01T05:04:08.593Z,15
2017-05-01T05:05:10.024Z,20
2017-05-01T05:06:11.459Z,20
2017-05-01T05:07:12.895Z,20
2017-05-01T05:08:14.320Z,20
2017-05-01T05:09:15.741Z,20
2017-05-01T05:10:17.174Z,25
2017-05-01T05:11:18.597Z,25
2017-05-01T05:12:20.033Z,25
2017-05-01T05:13:21.457Z,25
2017-05-01T05:14:22.884Z,30
2017-05-01T05:15:24.317Z,30
2017-05-01T05:16:25.741Z,30
2017-05-01T05:17:27.173Z,30
2017-05-01T05:18:28.599Z,30
2017-05-01T05:19:30.035Z,30
2017-05-01T05:20:31.465Z,30
2017-05-01T05:21:32.889Z,30
2017-05-01T05:22:34.318Z,30
2017-05-01T05:23:35.745Z,30
2017-05-01T05:24:37.173Z,30
2017-05-01T05:25:38.596Z,30
2017-05-01T05:26:40.022Z,30
2017-05-01T05:27:41.454Z,35
2017-05-01T05:28:42.894Z,35
2017-05-01T05:29:44.322Z,35
2017-05-01T05:30:45.762Z,35
2017-05-01T05:31:47.190Z,35
2017-05-01T05:32:48.625Z,35
2017-05-01T05:33:50.053Z,35
2017-05-01T05:34:51.483Z,40
2017-05-01T05:35:52.909Z,40
2017-05-01T05:36:54.337Z,40
2017-05-01T05:37:55.763Z,40
2017-05-01T05:38:57.209Z,40
2017-05-01T05:39:58.643Z,40
2017-05-01T05:41:00.075Z,40
2017-05-01T05:42:01.502Z,40
2017-05-01T05:43:02.927Z,40
2017-05-01T05:44:04.365Z,40
2017-05-01T05:45:06.624Z,40
2017-05-01T05:46:08.047Z,40
2017-05-01T05:47:09.478Z,40
2017-05-01T05:48:10.906Z,40
2017-05-01T05:49:12.343Z,40
2017-05-01T05:50:13.774Z,40
2017-05-01T05:51:15.202Z,40
2017-05-01T05:52:16.639Z,40
2017-05-01T05:53:18.062Z,40
2017-05-01T05:54:19.494Z,40
2017-05-01T05:55:20.921Z,40
2017-05-01T05:56:22.341Z,40
2017-05-01T05:57:23.776Z,40
2017-05-01T05:58:25.213Z,40
2017-05-01T05:59:26.640Z,40
2017-05-01T06:00:28.075Z,40
2017-05-01T06:01:29.500Z,40
2017-05-01T06:02:30.931Z,40
2017-05-01T06:03:32.353Z,40
2017-05-01T06:04:33.792Z,45
2017-05-01T06:05:35.208Z,45
2017-05-01T06:06:36.638Z,45
2017-05-01T06:07:38.071Z,45
2017-05-01T06:08:39.503Z,45
2017-05-01T06:09:40.932Z,45
2017-05-01T06:10:42.360Z,45
2017-05-01T06:11:43.793Z,50
2017-05-01T06:12:45.226Z,50
2017-05-01T06:13:46.656Z,50
2017-05-01T06:14:48.096Z,50
2017-05-01T06:15:49.530Z,50
2017-05-01T06:16:50.957Z,50
2017-05-01T06:17:52.391Z,50
2017-05-01T06:18:53.813Z,50
2017-05-01T06:19:55.244Z,55
2017-05-01T06:20:56.676Z,55
2017-05-01T06:21:58.109Z,55
2017-05-01T06:22:59.538Z,55
2017-05-01T06:24:00.977Z,55
2017-05-01T06:25:02.408Z,60
2017-05-01T06:26:03.836Z,60
2017-05-01T06:27:05.270Z,65
2017-05-01T06:28:06.708Z,65
2017-05-01T06:29:08.136Z,65
2017-05-01T06:30:09.566Z,60
2017-05-01T06:31:10.993Z,65
2017-05-01T06:32:12.430Z,65
2017-05-01T06:33:13.861Z,60
2017-05-01T06:34:15.291Z,60
2017-05-01T06:35:16.720Z,55
2017-05-01T06:36:18.152Z,55
2017-05-01T06:37:19.585Z,55
2017-05-01T06:38:21.027Z,50
2017-05-01T06:39:22.456Z,50
2017-05-01T06:40:23.898Z,50
2017-05-01T06:41:25.333Z,50
2017-05-01T06:42:26.760Z,50
2017-05-01T06:43:28.193Z,55
2017-05-01T06:44:29.625Z,60
2017-05-01T06:45:31.057Z,65
2017-05-01T06:46:32.488Z,70
2017-05-01T06:47:33.920Z,75
2017-05-01T06:48:35.378Z,75
2017-05-01T06:49:36.815Z,75
2017-05-01T06:50:38.248Z,75
2017-05-01T06:51:39.679Z,50
2017-05-01T06:52:41.137Z,70
2017-05-01T06:53:42.581Z,65
2017-05-01T06:54:44.009Z,65
2017-05-01T06:55:45.474Z,65
2017-05-01T06:56:46.908Z,65
2017-05-01T06:57:48.339Z,70
2017-05-01T06:58:49.775Z,70
2017-05-01T06:59:51.219Z,75
2017-05-01T07:00:52.654Z,75
2017-05-01T07:01:54.079Z,75
2017-05-01T07:02:55.521Z,70
2017-05-01T07:03:56.947Z,75
2017-05-01T07:04:58.396Z,70
2017-05-01T07:05:59.828Z,35
2017-05-01T07:07:01.270Z,70
2017-05-01T07:08:02.709Z,70
2017-05-01T07:09:04.141Z,75
2017-05-01T07:10:05.575Z,80
2017-05-01T07:11:07.031Z,80
2017-05-01T07:12:08.474Z,80
2017-05-01T07:13:09.908Z,35
2017-05-01T07:14:11.337Z,80
2017-05-01T07:15:12.770Z,30
2017-05-01T07:16:14.205Z,80
2017-05-01T07:17:15.655Z,80
2017-05-01T07:18:17.092Z,80
2017-05-01T07:19:18.530Z,80
2017-05-01T07:20:19.960Z,30
2017-05-01T07:21:21.385Z,80
2017-05-01T07:22:22.817Z,80
2017-05-01T07:23:24.268Z,85
2017-05-01T07:24:25.702Z,90
2017-05-01T07:25:27.145Z,90
2017-05-01T07:26:28.571Z,95
2017-05-01T07:27:30.014Z,95
2017-05-01T07:28:31.568Z,100
2017-05-01T07:29:33.064Z,105
2017-05-01T07:30:34.505Z,105
2017-05-01T07:31:35.942Z,105
2017-05-01T07:32:37.438Z,105
2017-05-01T07:33:38.898Z,110
2017-05-01T07:34:40.329Z,120
2017-05-01T07:35:41.761Z,115
2017-05-01T07:36:43.193Z,115
2017-05-01T07:37:44.629Z,115
2017-05-01T07:38:46.063Z,120
2017-05-01T07:39:47.494Z,120
2017-05-01T07:40:48.957Z,35
2017-05-01T07:41:50.395Z,95
2017-05-01T07:42:51.833Z,95
2017-05-01T07:43:53.268Z,100
2017-05-01T07:44:54.711Z,90
2017-05-01T07:45:56.135Z,90
2017-05-01T07:46:57.576Z,85
2017-05-01T07:47:59.018Z,85
2017-05-01T07:49:00.470Z,85
2017-05-01T07:50:01.901Z,90
2017-05-01T07:51:03.348Z,95
2017-05-01T07:52:04.871Z,95
2017-05-01T07:53:06.305Z,95
2017-05-01T07:54:07.741Z,95
2017-05-01T07:55:09.176Z,95
2017-05-01T07:56:10.621Z,95
2017-05-01T07:57:12.056Z,95
2017-05-01T07:58:13.502Z,100
2017-05-01T07:59:14.942Z,100
2017-05-01T08:00:16.382Z,100
2017-05-01T08:01:17.817Z,100
2017-05-01T08:02:19.252Z,100
2017-05-01T08:03:20.685Z,95
2017-05-01T08:04:22.119Z,90
2017-05-01T08:05:23.553Z,85
2017-05-01T08:06:25.090Z,80
2017-05-01T08:07:26.522Z,80
2017-05-01T08:08:27.954Z,75
2017-05-01T08:09:29.385Z,75
2017-05-01T08:10:30.823Z,65
2017-05-01T08:11:32.253Z,55
2017-05-01T08:12:33.820Z,50
2017-05-01T08:13:35.253Z,45
2017-05-01T08:14:36.687Z,40
2017-05-01T08:15:38.123Z,40
2017-05-01T08:16:39.558Z,45
2017-05-01T08:17:41.004Z,45
2017-05-01T08:18:42.901Z,45
2017-05-01T08:19:44.350Z,50
2017-05-01T08:20:45.789Z,50
2017-05-01T08:21:47.222Z,50
2017-05-01T08:22:48.658Z,50
2017-05-01T08:23:50.087Z,55
2017-05-01T08:24:51.534Z,50
2017-05-01T08:25:52.972Z,50
2017-05-01T08:26:54.403Z,50
2017-05-01T08:27:55.847Z,50
2017-05-01T08:28:57.274Z,45
2017-05-01T08:29:58.711Z,45
2017-05-01T08:31:00.146Z,45
2017-05-01T08:32:01.582Z,45
2017-05-01T08:33:03.011Z,45
2017-05-01T08:34:04.440Z,40
2017-05-01T08:35:05.874Z,40
2017-05-01T08:36:07.315Z,40
2017-05-01T08:37:08.751Z,40
2017-05-01T08:38:10.185Z,40
2017-05-01T08:39:11.622Z,40
2017-05-01T08:40:13.058Z,45
2017-05-01T08:41:14.493Z,45
2017-05-01T08:42:15.925Z,45
2017-05-01T08:43:17.355Z,45
2017-05-01T08:44:18.793Z,45
2017-05-01T08:45:20.223Z,45
2017-05-01T08:46:21.660Z,50
2017-05-01T08:47:23.097Z,55
2017-05-01T08:48:24.539Z,55
2017-05-01T08:49:25.978Z,50
2017-05-01T08:50:27.403Z,55
2017-05-01T08:51:28.837Z,50
2017-05-01T08:52:30.271Z,50
2017-05-01T08:53:31.717Z,50
2017-05-01T08:54:33.148Z,45
2017-05-01T08:55:34.579Z,45
2017-05-01T08:56:36.006Z,45
2017-05-01T08:57:37.451Z,45
2017-05-01T08:58:38.885Z,45
2017-05-01T08:59:40.320Z,45
2017-05-01T09:00:41.751Z,40
2017-05-01T09:01:43.187Z,40
2017-05-01T09:02:44.616Z,40
2017-05-01T09:03:46.052Z,40
2017-05-01T09:04:47.487Z,40
2017-05-01T09:05:48.917Z,40
2017-05-01T09:06:50.338Z,40
2017-05-01T09:07:51.796Z,40
2017-05-01T09:08:53.235Z,45
2017-05-01T09:09:54.667Z,45
2017-05-01T09:10:56.098Z,45
2017-05-01T09:11:57.528Z,45
2017-05-01T09:12:58.958Z,40
2017-05-01T09:14:00.399Z,40
2017-05-01T09:15:01.838Z,40
2017-05-01T09:16:03.275Z,40
2017-05-01T09:17:04.711Z,40
2017-05-01T09:18:06.140Z,40
2017-05-01T09:19:07.614Z,35
2017-05-01T09:20:09.047Z,35
2017-05-01T09:21:10.479Z,35
2017-05-01T09:22:11.911Z,35
2017-05-01T09:23:13.395Z,35
2017-05-01T09:24:14.824Z,35
2017-05-01T09:25:16.261Z,35
2017-05-01T09:26:17.696Z,35
2017-05-01T09:27:19.156Z,35
2017-05-01T09:28:20.591Z,35
2017-05-01T09:29:22.030Z,35
2017-05-01T09:30:23.468Z,35
2017-05-01T09:31:24.910Z,35
2017-05-01T09:32:26.348Z,35
2017-05-01T09:33:27.788Z,35
2017-05-01T09:34:29.288Z,35
2017-05-01T09:35:30.719Z,40
2017-05-01T09:36:32.149Z,40
2017-05-01T09:37:33.572Z,45
2017-05-01T09:38:35.010Z,45
2017-05-01T09:39:36.447Z,50
2017-05-01T09:40:37.878Z,55
2017-05-01T09:41:39.312Z,55
2017-05-01T09:42:40.747Z,60
2017-05-01T09:43:42.178Z,60
2017-05-01T09:44:43.615Z,60
2017-05-01T09:45:45.157Z,60
2017-05-01T09:46:46.585Z,55
2017-05-01T09:47:48.017Z,55
2017-05-01T09:48:49.455Z,50
2017-05-01T09:49:50.947Z,50
2017-05-01T09:50:52.397Z,50
2017-05-01T09:51:53.828Z,50
2017-05-01T09:52:55.307Z,50
2017-05-01T09:53:56.747Z,45
2017-05-01T09:54:58.184Z,45
2017-05-01T09:55:59.616Z,45
2017-05-01T09:57:01.062Z,45
2017-05-01T09:58:02.486Z,45
2017-05-01T09:59:03.920Z,45
2017-05-01T10:00:05.359Z,45
2017-05-01T10:01:06.791Z,45
2017-05-01T10:02:08.227Z,50
2017-05-01T10:03:09.658Z,50
2017-05-01T10:04:11.105Z,50
2017-05-01T10:05:12.530Z,50
2017-05-01T10:06:13.971Z,50
2017-05-01T10:07:15.402Z,55
2017-05-01T10:08:16.941Z,55
2017-05-01T10:09:18.371Z,55
2017-05-01T10:10:19.803Z,55
2017-05-01T10:11:21.271Z,55
2017-05-01T10:12:22.710Z,55
2017-05-01T10:13:24.134Z,50
2017-05-01T10:14:25.577Z,50
2017-05-01T10:15:27.013Z,50
2017-05-01T10:16:28.448Z,50
2017-05-01T10:17:29.881Z,55
2017-05-01T10:18:31.311Z,55
2017-05-01T10:19:32.740Z,55
2017-05-01T10:20:34.168Z,55
2017-05-01T10:21:35.601Z,55
2017-05-01T10:22:37.036Z,60
2017-05-01T10:23:38.464Z,65
2017-05-01T10:24:39.917Z,70
2017-05-01T10:25:41.349Z,70
2017-05-01T10:26:42.784Z,75
2017-05-01T10:27:44.217Z,80
2017-05-01T10:28:45.658Z,80
2017-05-01T10:29:47.098Z,80
2017-05-01T10:30:48.538Z,80
2017-05-01T10:31:49.976Z,80
2017-05-01T10:32:51.407Z,80
2017-05-01T10:33:52.833Z,80
2017-05-01T10:34:54.273Z,85
2017-05-01T10:35:55.699Z,85
2017-05-01T10:36:57.128Z,85
2017-05-01T10:37:58.548Z,95
2017-05-01T10:38:59.985Z,95
2017-05-01T10:40:01.416Z,100
2017-05-01T10:41:02.850Z,95
2017-05-01T10:42:04.301Z,95
2017-05-01T10:43:05.734Z,95
2017-05-01T10:44:07.171Z,95
2017-05-01T10:45:08.602Z,90
2017-05-01T10:46:10.045Z,90
2017-05-01T10:47:11.475Z,95
2017-05-01T10:48:12.905Z,100
2017-05-01T10:49:14.342Z,105
2017-05-01T10:50:15.769Z,110
2017-05-01T10:51:17.201Z,110
2017-05-01T10:52:18.631Z,110
2017-05-01T10:53:20.080Z,105
2017-05-01T10:54:21.505Z,105
2017-05-01T10:55:22.944Z,100
2017-05-01T10:56:24.366Z,100
2017-05-01T10:57:25.811Z,95
2017-05-01T10:58:27.257Z,90
2017-05-01T10:59:28.687Z,100
2017-05-01T11:00:30.122Z,100
2017-05-01T11:01:31.569Z,105
2017-05-01T11:02:32.996Z,85
2017-05-01T11:03:34.428Z,110
2017-05-01T11:04:35.860Z,110
2017-05-01T11:05:37.295Z,110
2017-05-01T11:06:38.730Z,105
2017-05-01T11:07:40.176Z,105
2017-05-01T11:08:41.610Z,100
2017-05-01T11:09:43.042Z,100
2017-05-01T11:10:44.475Z,95
2017-05-01T11:11:45.902Z,85
2017-05-01T11:12:47.338Z,80
2017-05-01T11:13:48.770Z,75
2017-05-01T11:14:50.197Z,75
2017-05-01T11:15:51.641Z,75
2017-05-01T11:16:53.074Z,70
2017-05-01T11:17:54.512Z,65
2017-05-01T11:18:56.726Z,65
2017-05-01T11:19:57.354Z,60
2017-05-01T11:20:58.785Z,55
2017-05-01T11:22:00.224Z,65
2017-05-01T11:23:01.649Z,65
2017-05-01T11:24:03.096Z,55
2017-05-01T11:25:04.542Z,45
2017-05-01T11:26:05.983Z,40
2017-05-01T11:27:07.405Z,40
2017-05-01T11:28:08.836Z,35
2017-05-01T11:29:10.271Z,35
2017-05-01T11:30:11.713Z,35
2017-05-01T11:31:13.154Z,30
2017-05-01T11:32:14.579Z,30
2017-05-01T11:33:16.011Z,35
2017-05-01T11:34:17.458Z,45
2017-05-01T11:35:18.888Z,55
2017-05-01T11:36:20.326Z,55
2017-05-01T11:37:21.759Z,60
2017-05-01T11:38:23.187Z,65
2017-05-01T11:39:24.619Z,65
2017-05-01T11:40:26.045Z,65
2017-05-01T11:41:27.485Z,65
2017-05-01T11:42:28.923Z,70
2017-05-01T11:43:30.359Z,75
2017-05-01T11:44:31.796Z,85
2017-05-01T11:45:33.243Z,85
2017-05-01T11:46:34.670Z,85
2017-05-01T11:47:36.128Z,65
2017-05-01T11:48:37.567Z,40
2017-05-01T11:49:39.011Z,0
2017-05-01T11:50:40.440Z,20
2017-05-01T11:51:41.879Z,65
2017-05-01T11:52:43.313Z,65
2017-05-01T11:53:44.756Z,90
2017-05-01T11:54:46.180Z,95
2017-05-01T11:55:47.618Z,90
2017-05-01T11:56:49.066Z,90
2017-05-01T11:57:50.505Z,90
2017-05-01T11:58:51.935Z,85
2017-05-01T11:59:53.406Z,85
2017-05-01T12:00:54.852Z,85
2017-05-01T12:01:56.285Z,85
2017-05-01T12:02:57.717Z,30
2017-05-01T12:03:59.161Z,35
2017-05-01T12:05:00.600Z,45
2017-05-01T12:06:02.031Z,0
2017-05-01T12:07:03.494Z,75
2017-05-01T12:08:04.989Z,35
2017-05-01T12:09:06.421Z,70
2017-05-01T12:10:07.848Z,65
2017-05-01T12:11:09.278Z,70
2017-05-01T12:12:10.716Z,85
2017-05-01T12:13:12.150Z,90
2017-05-01T12:14:13.627Z,95
2017-05-01T12:15:15.060Z,95
2017-05-01T12:16:16.488Z,95
2017-05-01T12:17:17.921Z,95
2017-05-01T12:18:19.385Z,90
2017-05-01T12:19:20.809Z,85
2017-05-01T12:20:22.250Z,85
2017-05-01T12:21:23.677Z,80
2017-05-01T12:22:25.119Z,80
2017-05-01T12:23:27.264Z,65
2017-05-01T12:24:28.714Z,80
2017-05-01T12:25:30.148Z,75
2017-05-01T12:26:31.595Z,75
2017-05-01T12:27:33.027Z,65
2017-05-01T12:28:34.463Z,75
2017-05-01T12:29:35.910Z,75
2017-05-01T12:30:37.346Z,75
2017-05-01T12:31:38.787Z,75
2017-05-01T12:32:40.230Z,75
2017-05-01T12:33:41.671Z,75
2017-05-01T12:34:43.127Z,80
2017-05-01T12:35:44.563Z,85
2017-05-01T12:36:46.001Z,85
2017-05-01T12:37:47.427Z,85
2017-05-01T12:38:48.869Z,50
2017-05-01T12:39:50.311Z,80
2017-05-01T12:40:51.743Z,80
2017-05-01T12:41:53.177Z,80
2017-05-01T12:42:54.613Z,75
2017-05-01T12:43:56.053Z,75
2017-05-01T12:44:57.489Z,75
2017-05-01T12:45:58.922Z,75
2017-05-01T12:47:00.350Z,70
2017-05-01T12:48:01.783Z,60
2017-05-01T12:49:03.218Z,55
2017-05-01T12:50:04.650Z,50
2017-05-01T12:51:06.088Z,55
2017-05-01T12:52:07.533Z,55
2017-05-01T12:53:08.973Z,50
2017-05-01T12:54:10.408Z,50
2017-05-01T12:55:11.837Z,50
2017-05-01T12:56:13.280Z,45
2017-05-01T12:57:14.715Z,45
2017-05-01T12:58:16.147Z,40
2017-05-01T12:59:17.595Z,40
2017-05-01T13:00:19.025Z,45
2017-05-01T13:01:20.462Z,45
2017-05-01T13:02:21.887Z,45
2017-05-01T13:03:23.330Z,50
2017-05-01T13:04:24.775Z,50
2017-05-01T13:05:26.200Z,50
2017-05-01T13:06:28.463Z,50
2017-05-01T13:07:29.897Z,55
2017-05-01T13:08:31.328Z,50
2017-05-01T13:09:32.757Z,50
2017-05-01T13:10:34.186Z,50
2017-05-01T13:11:35.622Z,50
2017-05-01T13:12:37.880Z,45
2017-05-01T13:13:39.315Z,45
2017-05-01T13:14:40.752Z,50
2017-05-01T13:15:42.185Z,50
2017-05-01T13:16:43.644Z,50
2017-05-01T13:17:45.075Z,50
2017-05-01T13:18:46.510Z,60
2017-05-01T13:19:47.948Z,70
2017-05-01T13:20:49.392Z,70
2017-05-01T13:21:50.820Z,65
2017-05-01T13:22:52.258Z,70
2017-05-01T13:23:53.698Z,70
2017-05-01T13:24:55.141Z,70
2017-05-01T13:25:56.574Z,70
2017-05-01T13:26:58.004Z,70
2017-05-01T13:27:59.437Z,70
2017-05-01T13:29:00.857Z,70
2017-05-01T13:30:02.298Z,65
2017-05-01T13:31:03.723Z,60
2017-05-01T13:32:05.173Z,60
2017-05-01T13:33:06.611Z,60
2017-05-01T13:34:08.044Z,55
2017-05-01T13:35:09.544Z,60
2017-05-01T13:36:11.114Z,65
2017-05-01T13:37:12.551Z,65
2017-05-01T13:38:13.982Z,65
2017-05-01T13:39:15.415Z,65
2017-05-01T13:40:16.844Z,65
2017-05-01T13:41:18.276Z,60
2017-05-01T13:42:19.713Z,60
2017-05-01T13:43:21.157Z,55
2017-05-01T13:44:22.588Z,55
2017-05-01T13:45:24.011Z,50
2017-05-01T13:46:26.023Z,50
2017-05-01T13:47:27.465Z,45
2017-05-01T13:48:28.899Z,45
2017-05-01T13:49:30.345Z,45
2017-05-01T13:50:31.775Z,45
2017-05-01T13:51:33.213Z,45
2017-05-01T13:52:34.646Z,45
2017-05-01T13:53:36.071Z,45
2017-05-01T13:54:37.508Z,45
2017-05-01T13:55:38.943Z,50
2017-05-01T13:56:40.387Z,55
2017-05-01T13:57:41.822Z,60
2017-05-01T13:58:43.253Z,60
2017-05-01T13:59:44.685Z,65
2017-05-01T14:00:46.125Z,65
2017-05-01T14:01:47.557Z,60
2017-05-01T14:02:48.994Z,60
2017-05-01T14:03:50.425Z,65
2017-05-01T14:04:51.866Z,65
2017-05-01T14:05:53.293Z,65
2017-05-01T14:06:54.730Z,70
2017-05-01T14:07:56.156Z,70
2017-05-01T14:08:58.342Z,70
2017-05-01T14:10:00.034Z,70
2017-05-01T14:11:01.467Z,65
2017-05-01T14:12:02.897Z,65
2017-05-01T14:13:05.066Z,65
2017-05-01T14:14:06.491Z,65
2017-05-01T14:15:07.930Z,70
2017-05-01T14:16:09.368Z,75
2017-05-01T14:17:10.802Z,75
2017-05-01T14:18:12.237Z,75
2017-05-01T14:19:13.681Z,75
2017-05-01T14:20:15.120Z,70
2017-05-01T14:21:16.572Z,65
2017-05-01T14:22:18.014Z,60
2017-05-01T14:23:19.442Z,55
2017-05-01T14:24:20.881Z,55
2017-05-01T14:25:22.310Z,55
2017-05-01T14:26:23.750Z,55
2017-05-01T14:27:25.199Z,55
2017-05-01T14:28:26.643Z,55
2017-05-01T14:29:28.067Z,55
2017-05-01T14:30:29.516Z,55
2017-05-01T14:31:31.002Z,60
2017-05-01T14:32:32.447Z,60
2017-05-01T14:33:34.445Z,60
2017-05-01T14:34:35.875Z,60
2017-05-01T14:35:37.850Z,55
2017-05-01T14:36:39.287Z,55
2017-05-01T14:37:40.714Z,50
2017-05-01T14:38:42.145Z,50
2017-05-01T14:39:43.571Z,50
2017-05-01T14:40:45.624Z,50
2017-05-01T14:41:47.052Z,45
2017-05-01T14:42:48.482Z,45
2017-05-01T14:43:49.910Z,45
2017-05-01T14:44:51.342Z,45
2017-05-01T14:45:52.770Z,45
2017-05-01T14:46:54.212Z,40